Time;durP1;ratioP1;P1;durP2;ratioP2;P2;SDS_P1;SDS_P2;PMS_P1;PMS_P2;Temp;Humidity;BMP_temperature;BMP_pressure;BME280_temperature;BME280_humidity;BME280_pressure;Samples;Min_cycle;Max_cycle;Signal;HPM_P1;HPM_P2
2023/08/04 00:02:57;;;;;;;1.30;0.30;;;;;;;20.89;56.75;96141.84;10526249;28;20031;-29
2023/08/04 00:07:57;;;;;;;1.25;0.40;;;;;;;20.87;56.54;96144.41;10531607;28;20085;-29
2023/08/04 00:12:58;;;;;;;0.63;0.30;;;;;;;20.79;56.93;96146.22;10532990;28;21112;-30
2023/08/04 00:17:58;;;;;;;0.57;0.30;;;;;;;20.78;56.69;96157.25;10502569;28;20531;-29
2023/08/04 00:22:59;;;;;;;1.43;0.40;;;;;;;20.79;56.69;96158.94;10540863;28;20035;-29
2023/08/04 00:27:59;;;;;;;0.85;0.40;;;;;;;20.78;56.87;96159.81;10532195;28;20317;-29
2023/08/04 00:33:01;;;;;;;1.40;0.45;;;;;;;20.76;56.63;96151.38;10524834;28;20541;-29
2023/08/04 00:38:02;;;;;;;0.73;0.38;;;;;;;20.72;56.70;96149.72;10531022;28;20039;-29
2023/08/04 00:43:03;;;;;;;1.17;0.38;;;;;;;20.84;56.64;96144.44;10544153;28;20044;-30
2023/08/04 00:48:04;;;;;;;0.70;0.30;;;;;;;20.87;56.74;96138.50;10518867;28;20028;-30
2023/08/04 00:53:04;;;;;;;0.95;0.43;;;;;;;20.87;56.54;96139.31;10535415;28;20118;-29
2023/08/04 00:58:05;;;;;;;1.40;0.43;;;;;;;20.82;56.53;96143.59;10536380;28;20046;-29
2023/08/04 01:03:06;;;;;;;3.65;0.40;;;;;;;20.78;56.35;96128.41;10538274;28;20063;-29
2023/08/04 01:08:21;;;;;;;0.55;0.30;;;;;;;20.76;56.51;96131.00;10514349;28;20114;-29
2023/08/04 01:13:24;;;;;;;1.42;0.30;;;;;;;20.74;56.61;96132.75;10541164;28;20032;-28
2023/08/04 01:18:24;;;;;;;0.45;0.35;;;;;;;20.72;56.85;96126.84;10532148;28;20059;-30
2023/08/04 01:23:24;;;;;;;0.97;0.30;;;;;;;20.71;56.66;96131.97;10544283;28;20107;-29
2023/08/04 01:28:29;;;;;;;1.75;0.38;;;;;;;20.69;56.56;96129.44;10541615;28;20372;-29
2023/08/04 01:33:33;;;;;;;0.30;0.30;;;;;;;20.83;56.24;96131.72;10528519;28;20033;-29
2023/08/04 01:38:33;;;;;;;1.75;0.60;;;;;;;20.87;56.76;96139.31;10538801;28;20035;-30
2023/08/04 01:43:34;;;;;;;2.42;0.57;;;;;;;20.84;56.33;96139.34;10538157;28;20041;-29
2023/08/04 01:48:36;;;;;;;0.77;0.30;;;;;;;20.81;56.50;96143.66;10541207;28;20028;-29
2023/08/04 01:53:37;;;;;;;0.55;0.40;;;;;;;20.77;56.40;96140.31;10538176;28;20088;-29
2023/08/04 01:58:37;;;;;;;0.70;0.30;;;;;;;20.73;56.50;96131.03;10549927;28;20073;-28
2023/08/04 02:03:37;;;;;;;0.97;0.40;;;;;;;20.72;56.70;96134.47;10541444;28;20050;-29
2023/08/04 02:08:38;;;;;;;0.40;0.30;;;;;;;20.68;56.67;96127.78;10519069;28;20028;-29
2023/08/04 02:13:38;;;;;;;0.53;0.30;;;;;;;20.70;56.50;96126.03;10525304;28;20551;-29
2023/08/04 02:18:39;;;;;;;0.30;0.20;;;;;;;20.72;56.47;96131.91;10539184;28;20028;-29
2023/08/04 02:23:39;;;;;;;1.60;0.40;;;;;;;20.82;56.29;96135.97;10558321;28;20450;-29
2023/08/04 02:28:39;;;;;;;1.60;0.30;;;;;;;20.80;56.16;96122.44;10549819;28;20294;-29
2023/08/04 02:33:40;;;;;;;1.73;0.50;;;;;;;20.82;56.12;96125.78;10551099;28;20031;-29
2023/08/04 02:38:41;;;;;;;0.95;0.40;;;;;;;20.77;56.17;96127.59;10529773;28;20040;-29
2023/08/04 02:43:41;;;;;;;0.80;0.30;;;;;;;20.74;56.35;96137.84;10508256;28;20028;-29
2023/08/04 02:48:42;;;;;;;0.95;0.30;;;;;;;20.71;56.32;96135.34;10537698;28;20133;-29
2023/08/04 02:53:45;;;;;;;2.23;0.43;;;;;;;20.70;56.33;96133.66;10531472;28;20043;-29
2023/08/04 02:58:47;;;;;;;1.52;0.32;;;;;;;20.69;56.38;96134.53;10550719;28;20027;-29
2023/08/04 03:03:47;;;;;;;0.75;0.30;;;;;;;20.69;56.30;96129.44;10530644;28;20054;-29
2023/08/04 03:08:47;;;;;;;0.50;0.30;;;;;;;20.70;56.32;96130.25;10541569;28;20036;-29
2023/08/04 03:13:48;;;;;;;1.13;0.30;;;;;;;20.81;56.44;96126.66;10537829;28;20036;-29
2023/08/04 03:18:48;;;;;;;1.03;0.30;;;;;;;20.83;56.29;96124.09;10531674;28;20040;-29
2023/08/04 03:23:48;;;;;;;2.03;0.40;;;;;;;20.79;56.09;96120.78;10525445;28;20115;-29
2023/08/04 03:28:49;;;;;;;1.10;0.20;;;;;;;20.73;56.55;96125.97;10522835;28;20029;-31
2023/08/04 03:33:49;;;;;;;0.90;0.50;;;;;;;20.71;56.57;96124.34;10531774;28;20035;-29
2023/08/04 03:38:49;;;;;;;1.33;0.40;;;;;;;20.70;56.47;96122.63;10542498;28;20031;-29
2023/08/04 03:43:50;;;;;;;6.77;0.57;;;;;;;20.32;56.79;96136.88;10540330;28;20031;-29
2023/08/04 03:48:50;;;;;;;1.47;0.47;;;;;;;19.89;57.68;96151.09;10532227;28;20371;-29
2023/08/04 03:53:50;;;;;;;0.53;0.37;;;;;;;19.73;57.99;96150.47;10538890;28;20028;-29
2023/08/04 03:58:51;;;;;;;2.73;0.47;;;;;;;19.67;58.01;96148.00;10522412;28;20478;-29
2023/08/04 04:03:51;;;;;;;2.10;0.70;;;;;;;19.59;58.36;96157.41;10533245;28;20687;-29
2023/08/04 04:08:54;;;;;;;4.80;0.57;;;;;;;19.57;58.86;96159.16;10537063;28;20028;-29
2023/08/04 04:13:54;;;;;;;6.07;0.77;;;;;;;19.52;58.86;96162.63;10544066;28;20040;-29
2023/08/04 04:18:54;;;;;;;1.33;0.60;;;;;;;19.35;59.11;96136.59;10541325;28;20020;-29
2023/08/04 04:23:55;;;;;;;1.47;0.33;;;;;;;19.42;59.26;96154.25;10531425;28;20274;-29
2023/08/04 04:28:55;;;;;;;7.23;0.67;;;;;;;19.36;59.52;96156.03;10538991;28;20452;-29
2023/08/04 04:33:55;;;;;;;1.57;0.73;;;;;;;19.35;59.61;96149.28;10523303;28;20031;-30
2023/08/04 04:38:56;;;;;;;3.27;0.63;;;;;;;19.45;59.37;96159.31;10537607;28;20486;-29
2023/08/04 04:43:57;;;;;;;2.77;0.50;;;;;;;19.52;59.38;96160.91;10528756;28;20500;-29
2023/08/04 04:48:57;;;;;;;2.45;0.50;;;;;;;19.56;58.76;96151.53;10533197;28;20553;-29
2023/08/04 04:53:57;;;;;;;5.90;1.00;;;;;;;19.45;59.71;96154.25;10540372;28;20035;-29
2023/08/04 04:58:58;;;;;;;2.43;0.60;;;;;;;19.36;60.16;96158.59;10530870;28;20089;-29
2023/08/04 05:03:58;;;;;;;4.47;1.15;;;;;;;19.37;60.62;96156.03;10530872;28;20028;-29
2023/08/04 05:08:58;;;;;;;1.95;0.65;;;;;;;19.93;58.70;96158.63;10528245;28;20406;-29
2023/08/04 05:13:59;;;;;;;3.97;0.70;;;;;;;20.16;58.21;96166.78;10534824;28;20509;-29
2023/08/04 05:18:59;;;;;;;4.03;1.13;;;;;;;20.22;57.94;96164.16;10537333;28;20467;-29
2023/08/04 05:23:59;;;;;;;6.97;1.07;;;;;;;20.38;57.95;96174.06;10544684;28;20387;-28
2023/08/04 05:29:00;;;;;;;20.30;3.80;;;;;;;20.39;59.35;96170.66;10535833;28;20123;-28
2023/08/04 05:34:01;;;;;;;7.70;2.47;;;;;;;20.45;59.38;96177.34;10534512;28;20031;-31
2023/08/04 05:39:02;;;;;;;6.68;1.70;;;;;;;20.43;59.34;96172.28;10541751;28;20050;-30
2023/08/04 05:44:03;;;;;;;5.85;1.00;;;;;;;20.55;59.03;96171.25;10536689;28;20043;-29
2023/08/04 05:49:03;;;;;;;6.22;0.82;;;;;;;20.54;59.49;96175.47;10532220;28;20032;-29
2023/08/04 05:54:04;;;;;;;6.13;0.95;;;;;;;20.55;59.44;96182.25;10535235;28;20501;-29
2023/08/04 05:59:04;;;;;;;3.40;1.13;;;;;;;20.57;59.25;96183.06;10527372;28;20028;-29
2023/08/04 06:04:05;;;;;;;3.35;1.40;;;;;;;20.57;59.09;96183.06;10535621;28;20039;-29
2023/08/04 06:09:05;;;;;;;3.57;1.10;;;;;;;20.56;59.43;96183.91;10531580;28;20034;-28
2023/08/04 06:14:05;;;;;;;2.87;0.70;;;;;;;20.57;59.75;96195.78;10534444;28;20588;-29
2023/08/04 06:19:06;;;;;;;4.90;0.88;;;;;;;20.59;59.61;96193.22;10543434;28;20103;-28
2023/08/04 06:24:06;;;;;;;1.50;0.83;;;;;;;20.61;59.57;96192.31;10543518;28;20069;-29
2023/08/04 06:29:07;;;;;;;3.10;0.70;;;;;;;20.65;59.43;96193.94;10524813;28;20049;-31
2023/08/04 06:34:08;;;;;;;3.30;0.87;;;;;;;20.65;59.44;96188.84;10533665;28;20054;-29
2023/08/04 06:39:08;;;;;;;2.00;0.73;;;;;;;20.67;59.64;96194.78;10525098;28;20032;-29
2023/08/04 06:44:09;;;;;;;2.57;0.60;;;;;;;20.68;59.03;96199.00;10536646;28;20528;-29
2023/08/04 06:49:09;;;;;;;5.13;0.90;;;;;;;20.64;59.53;96207.53;10527831;28;20066;-29
2023/08/04 06:54:09;;;;;;;1.87;0.60;;;;;;;20.66;58.51;96205.81;10525232;28;20147;-29
2023/08/04 06:59:13;;;;;;;4.90;0.70;;;;;;;20.69;58.26;96218.47;10545510;28;20031;-29
2023/08/04 07:04:13;;;;;;;0.70;0.45;;;;;;;20.68;58.79;96211.72;10515115;28;20036;-29
2023/08/04 07:09:14;;;;;;;2.75;0.40;;;;;;;20.69;58.08;96215.94;10526671;28;20032;-29
2023/08/04 07:14:14;;;;;;;0.47;0.30;;;;;;;20.66;58.29;96218.53;10531144;28;20084;-29
2023/08/04 07:19:15;;;;;;;2.47;0.40;;;;;;;20.59;58.12;96214.41;10548544;28;20028;-29
2023/08/04 07:24:15;;;;;;;1.33;0.30;;;;;;;20.63;58.19;96223.66;10544442;28;20398;-30
2023/08/04 07:29:18;;;;;;;2.40;0.50;;;;;;;20.67;58.39;96232.94;10526841;28;20032;-29
2023/08/04 07:34:18;;;;;;;1.25;0.32;;;;;;;20.65;58.13;96228.72;10523375;28;20568;-28
2023/08/04 07:39:19;;;;;;;2.83;0.83;;;;;;;20.56;58.65;96222.06;10520639;28;20031;-29
2023/08/04 07:44:19;;;;;;;1.30;0.50;;;;;;;20.55;58.86;96230.56;10531774;28;20420;-29
2023/08/04 07:49:20;;;;;;;3.80;0.53;;;;;;;20.65;58.55;96231.28;10523341;28;20278;-29
2023/08/04 07:54:21;;;;;;;4.73;0.57;;;;;;;20.68;58.69;96232.06;10527420;28;20031;-29
2023/08/04 07:59:21;;;;;;;8.85;0.60;;;;;;;20.65;58.38;96238.91;10525780;28;20075;-29
2023/08/04 08:04:21;;;;;;;6.73;1.03;;;;;;;20.68;58.91;96249.00;10546730;28;20524;-29
2023/08/04 08:09:22;;;;;;;4.83;0.70;;;;;;;20.71;58.51;96247.25;10537812;28;20345;-29
2023/08/04 08:14:22;;;;;;;11.57;1.03;;;;;;;20.75;58.85;96246.38;10538146;28;20081;-29
2023/08/04 08:19:23;;;;;;;7.43;1.10;;;;;;;20.76;58.44;96248.03;10536251;28;20442;-29
2023/08/04 08:24:23;;;;;;;2.97;1.07;;;;;;;20.73;58.61;96248.06;10538879;28;20417;-29
2023/08/04 08:29:23;;;;;;;4.37;0.73;;;;;;;20.72;58.50;96255.75;10520809;28;20293;-29
2023/08/04 08:34:24;;;;;;;2.23;0.50;;;;;;;20.61;58.83;96253.38;10526416;28;20655;-29
2023/08/04 08:39:24;;;;;;;7.53;0.73;;;;;;;20.62;59.56;96249.97;10521327;28;20448;-29
2023/08/04 08:44:27;;;;;;;5.47;0.50;;;;;;;20.61;59.40;96258.47;10527364;28;20414;-29
2023/08/04 08:49:33;;;;;;;16.70;1.77;;;;;;;20.61;59.47;96253.38;10523662;28;20089;-29
2023/08/04 08:54:35;;;;;;;4.45;0.55;;;;;;;20.68;59.19;96254.97;10532823;28;20032;-29
2023/08/04 08:59:35;;;;;;;5.55;0.70;;;;;;;20.70;58.80;96247.28;10546587;28;20601;-36
2023/08/04 09:04:37;;;;;;;3.38;0.60;;;;;;;20.76;59.22;96260.75;10532058;28;20071;-29
2023/08/04 09:09:38;;;;;;;4.25;0.60;;;;;;;20.78;59.10;96255.63;10531692;28;20097;-29
2023/08/04 09:14:52;;;;;;;19.70;1.70;;;;;;;20.80;58.74;96267.47;10532638;28;20081;-30
2023/08/04 09:19:52;;;;;;;36.03;3.25;;;;;;;20.80;58.97;96270.00;10541039;28;20291;-29
2023/08/04 09:24:59;;;;;;;9.47;0.83;;;;;;;20.76;59.44;96272.63;10536174;28;20040;-29
2023/08/04 09:30:04;;;;;;;8.07;0.80;;;;;;;20.72;58.89;96276.09;10552425;28;20036;-29
2023/08/04 09:35:05;;;;;;;4.85;0.50;;;;;;;20.65;59.07;96272.78;10522426;28;20024;-28
2023/08/04 09:40:20;;;;;;;14.75;1.02;;;;;;;20.68;58.88;96270.22;10528454;28;20041;-29
2023/08/04 09:45:20;;;;;;;1.67;0.30;;;;;;;20.61;58.67;96268.63;10527456;28;20046;-29
2023/08/04 09:50:21;;;;;;;4.60;0.60;;;;;;;20.60;58.82;96261.88;10535835;28;20036;-33
2023/08/04 09:55:21;;;;;;;5.32;0.60;;;;;;;20.67;58.62;96266.00;10542404;28;20028;-29
2023/08/04 10:00:23;;;;;;;4.30;0.40;;;;;;;20.74;58.48;96265.03;10535050;28;20032;-29
2023/08/04 10:05:25;;;;;;;1.88;0.70;;;;;;;20.69;58.45;96251.53;10529106;28;20289;-29
2023/08/04 10:10:26;;;;;;;9.32;0.80;;;;;;;20.64;58.70;96255.84;10524981;28;20039;-29
2023/08/04 10:15:27;;;;;;;3.67;0.57;;;;;;;20.62;58.66;96254.22;10518212;28;20035;-29
2023/08/04 10:20:32;;;;;;;1.25;0.70;;;;;;;20.66;58.53;96251.59;10527198;28;20126;-31
2023/08/04 10:25:33;;;;;;;10.07;3.53;;;;;;;20.68;59.17;96260.03;10527999;28;20036;-29
2023/08/04 10:30:34;;;;;;;4.70;1.90;;;;;;;20.68;58.81;96257.50;10532501;28;20093;-29
2023/08/04 10:36:12;;;;;;;5.38;1.67;;;;;;;20.66;58.53;96266.88;10522020;28;20073;-30
2023/08/04 10:41:12;;;;;;;1.60;0.73;;;;;;;20.65;58.54;96262.63;10531824;28;20136;-29
2023/08/04 10:46:14;;;;;;;3.53;1.00;;;;;;;20.71;58.79;96260.00;10531193;28;20101;-29
2023/08/04 10:51:14;;;;;;;11.95;1.48;;;;;;;20.78;58.95;96251.41;10524891;28;20055;-29
2023/08/04 10:56:21;;;;;;;9.75;1.58;;;;;;;20.74;58.69;96249.78;10539422;28;20043;-29
2023/08/04 11:01:25;;;;;;;15.80;1.20;;;;;;;20.75;58.85;96248.91;10524703;28;20055;-29
2023/08/04 11:06:25;;;;;;;10.23;1.17;;;;;;;20.72;58.58;96248.13;10528850;28;20041;-30
2023/08/04 11:11:26;;;;;;;10.87;1.37;;;;;;;20.78;58.82;96256.47;10535299;28;20039;-29
2023/08/04 11:16:26;;;;;;;4.03;0.70;;;;;;;20.79;58.52;96258.16;10530696;28;20043;-28
2023/08/04 11:21:28;;;;;;;3.23;0.70;;;;;;;20.82;58.63;96253.00;10529469;28;20032;-29
2023/08/04 11:26:29;;;;;;;4.70;0.98;;;;;;;20.82;58.76;96253.00;10533075;28;20039;-29
2023/08/04 11:31:32;;;;;;;7.90;1.40;;;;;;;20.79;58.78;96245.44;10556569;28;20569;-30
2023/08/04 11:36:32;;;;;;;2.92;0.70;;;;;;;20.76;58.52;96242.97;10536895;28;20024;-29
2023/08/04 11:41:33;;;;;;;1.70;0.50;;;;;;;20.89;58.55;96264.81;10532010;28;20032;-30
2023/08/04 11:46:34;;;;;;;2.70;1.30;;;;;;;20.86;58.81;96280.13;10518055;28;20032;-29
2023/08/04 11:51:35;;;;;;;2.42;0.90;;;;;;;20.83;58.98;96289.47;10516267;28;20036;-29
2023/08/04 11:56:38;;;;;;;2.75;0.73;;;;;;;20.83;58.98;96295.44;10540202;28;20040;-30
2023/08/04 12:01:38;;;;;;;2.15;0.57;;;;;;;20.81;59.18;96292.03;10531894;28;20089;-29
2023/08/04 12:06:39;;;;;;;3.95;1.98;;;;;;;20.80;58.85;96300.53;10531053;28;20028;-30
2023/08/04 12:11:47;;;;;;;3.23;1.60;;;;;;;20.81;58.94;96312.41;10527014;28;20079;-29
2023/08/04 12:16:51;;;;;;;3.35;1.08;;;;;;;20.81;58.71;96307.31;10531475;28;20293;-29
2023/08/04 12:21:53;;;;;;;1.63;0.80;;;;;;;20.83;59.09;96318.31;10518563;28;20032;-29
2023/08/04 12:26:54;;;;;;;0.90;0.35;;;;;;;20.84;60.87;96336.97;10526107;28;20052;-30
2023/08/04 12:31:55;;;;;;;0.50;0.43;;;;;;;20.87;60.84;96350.50;10538356;28;20029;-29
2023/08/04 12:36:55;;;;;;;1.70;0.60;;;;;;;20.81;61.91;96353.09;10525726;28;20293;-29
2023/08/04 12:41:55;;;;;;;1.47;0.33;;;;;;;20.72;63.48;96363.41;10541789;28;20556;-29
2023/08/04 12:46:56;;;;;;;0.40;0.30;;;;;;;20.71;63.55;96361.75;10534288;28;20051;-29
2023/08/04 12:51:57;;;;;;;2.30;0.40;;;;;;;20.65;63.15;96356.75;10529652;28;20032;-29
2023/08/04 12:56:57;;;;;;;1.30;0.63;;;;;;;20.66;62.78;96355.91;10514167;28;20020;-29
2023/08/04 13:01:57;;;;;;;0.57;0.20;;;;;;;20.65;62.97;96366.09;10535770;28;20050;-29
2023/08/04 13:06:58;;;;;;;0.45;0.30;;;;;;;20.60;62.67;96361.06;10536783;28;20401;-30
2023/08/04 13:11:58;;;;;;;0.70;0.20;;;;;;;20.49;62.63;96334.94;10511641;28;20498;-29
2023/08/04 13:16:58;;;;;;;0.97;0.20;;;;;;;20.73;62.29;96380.38;10558294;28;20027;-28
2023/08/04 13:21:59;;;;;;;0.17;0.00;;;;;;;20.76;62.51;96382.88;10541917;28;20028;-29
2023/08/04 13:26:59;;;;;;;0.10;0.10;;;;;;;20.74;62.66;96383.75;10526519;28;20036;-29
2023/08/04 13:32:00;;;;;;;0.35;0.30;;;;;;;20.70;63.10;96372.78;10535747;28;20043;-29
2023/08/04 13:37:00;;;;;;;0.20;0.10;;;;;;;20.71;62.87;96377.00;10519108;28;20051;-30
2023/08/04 13:42:00;;;;;;;0.67;0.27;;;;;;;20.71;62.48;96377.00;10525774;28;20047;-29
2023/08/04 13:47:01;;;;;;;1.80;0.70;;;;;;;20.76;62.37;96380.34;10530360;28;20028;-29
2023/08/04 13:52:01;;;;;;;4.10;0.50;;;;;;;20.78;62.21;96378.59;10528764;28;20397;-29
2023/08/04 13:57:02;;;;;;;4.63;0.52;;;;;;;20.81;61.67;96372.63;10533643;28;20166;-29
2023/08/04 14:02:03;;;;;;;3.58;0.50;;;;;;;20.83;61.69;96376.00;10542477;28;20046;-29
2023/08/04 14:07:04;;;;;;;1.90;0.43;;;;;;;20.85;63.73;96382.75;10531350;28;20028;-30
2023/08/04 14:12:04;;;;;;;2.47;0.60;;;;;;;20.89;63.16;96376.78;10527426;28;20097;-29
2023/08/04 14:17:05;;;;;;;1.08;0.50;;;;;;;20.95;62.42;96376.69;10527966;28;20031;-29
2023/08/04 14:22:05;;;;;;;3.73;0.40;;;;;;;20.93;62.46;96363.16;10533163;28;20031;-30
2023/08/04 14:27:07;;;;;;;1.40;0.60;;;;;;;20.99;62.81;96368.13;10531844;28;20799;-30
2023/08/04 14:32:07;;;;;;;3.10;0.90;;;;;;;20.97;62.59;96367.31;10544720;28;20644;-29
2023/08/04 14:37:08;;;;;;;3.97;1.00;;;;;;;21.00;62.99;96376.63;10547859;28;20031;-30
2023/08/04 14:42:08;;;;;;;1.97;0.63;;;;;;;20.94;62.81;96390.28;10527052;28;20656;-29
2023/08/04 14:47:09;;;;;;;1.88;0.68;;;;;;;20.97;62.47;96379.22;10540220;28;20028;-29
2023/08/04 14:52:09;;;;;;;2.90;0.80;;;;;;;20.96;63.17;96383.44;10534348;28;20027;-30
2023/08/04 14:57:09;;;;;;;1.75;1.20;;;;;;;20.91;63.58;96385.25;10526289;28;20089;-29
2023/08/04 15:02:10;;;;;;;1.40;0.60;;;;;;;20.99;62.83;96401.22;10527657;28;20031;-29
2023/08/04 15:07:10;;;;;;;3.73;0.53;;;;;;;21.00;62.68;96414.78;10537487;28;20031;-29
2023/08/04 15:12:12;;;;;;;11.27;1.47;;;;;;;20.97;63.39;96417.41;10526405;28;20300;-29
2023/08/04 15:17:13;;;;;;;7.03;0.98;;;;;;;21.05;62.70;96429.13;10523417;28;20497;-29
2023/08/04 15:22:13;;;;;;;1.63;0.67;;;;;;;21.02;63.31;96429.19;10516261;28;20035;-29
2023/08/04 15:27:15;;;;;;;2.75;0.85;;;;;;;20.93;63.62;96429.31;10530367;28;20105;-29
2023/08/04 15:32:15;;;;;;;4.68;1.00;;;;;;;20.96;63.13;96431.00;10536152;28;20084;-30
2023/08/04 15:37:16;;;;;;;1.57;0.60;;;;;;;20.97;62.88;96432.66;10537349;28;20474;-29
2023/08/04 15:42:16;;;;;;;3.13;0.40;;;;;;;20.95;62.34;96450.50;10536093;28;20032;-29
2023/08/04 15:47:17;;;;;;;3.60;0.67;;;;;;;20.91;62.13;96448.00;10535316;28;20142;-30
2023/08/04 15:52:17;;;;;;;2.83;0.65;;;;;;;20.90;61.74;96448.88;10530653;28;20030;-29
2023/08/04 15:57:18;;;;;;;0.45;0.45;;;;;;;20.88;62.19;96456.53;10523621;28;20036;-28
2023/08/04 16:02:18;;;;;;;1.38;0.77;;;;;;;20.86;62.17;96470.97;10541953;28;20034;-29
2023/08/04 16:07:19;;;;;;;0.70;0.60;;;;;;;20.90;62.11;96479.41;10540940;28;20036;-29
2023/08/04 16:12:19;;;;;;;0.75;0.60;;;;;;;20.90;62.25;96490.41;10548407;28;20444;-29
2023/08/04 16:17:19;;;;;;;4.07;0.80;;;;;;;20.82;62.23;96486.28;10543006;28;20093;-28
2023/08/04 16:22:20;;;;;;;4.50;0.97;;;;;;;20.90;63.14;96502.31;10544327;28;20051;-28
2023/08/04 16:27:20;;;;;;;2.37;0.83;;;;;;;20.89;62.48;96514.19;10536214;28;20300;-31
2023/08/04 16:32:20;;;;;;;2.03;0.90;;;;;;;20.89;63.29;96514.19;10532861;28;20771;-29
2023/08/04 16:37:21;;;;;;;5.40;0.70;;;;;;;20.88;62.83;96511.69;10536972;28;20416;-29
2023/08/04 16:42:21;;;;;;;6.72;1.35;;;;;;;20.87;62.92;96521.00;10538873;28;20417;-29
2023/08/04 16:47:22;;;;;;;2.57;0.83;;;;;;;20.81;62.93;96521.03;10524448;28;20036;-29
2023/08/04 16:52:22;;;;;;;2.65;0.73;;;;;;;20.77;62.99;96518.56;10550264;28;20058;-29
2023/08/04 16:57:24;;;;;;;2.00;1.60;;;;;;;20.68;62.96;96513.59;10541537;28;20035;-29
2023/08/04 17:02:24;;;;;;;1.65;0.63;;;;;;;20.71;62.96;96526.28;10525604;28;20111;-29
2023/08/04 17:07:25;;;;;;;0.97;0.40;;;;;;;20.70;62.95;96527.97;10555918;28;20035;-29
2023/08/04 17:12:26;;;;;;;1.58;0.47;;;;;;;20.78;62.79;96521.09;10528818;28;20020;-29
2023/08/04 17:17:26;;;;;;;0.30;0.30;;;;;;;20.84;62.58;96515.09;10542539;28;20020;-29
2023/08/04 17:22:27;;;;;;;0.47;0.40;;;;;;;20.89;62.27;96519.28;10523443;28;20028;-29
2023/08/04 17:27:27;;;;;;;1.23;0.40;;;;;;;20.87;62.07;96515.09;10525150;28;20446;-29
2023/08/04 17:32:30;;;;;;;0.93;0.43;;;;;;;20.94;61.93;96526.84;10539059;28;20575;-29
2023/08/04 17:37:30;;;;;;;2.00;0.77;;;;;;;20.92;62.68;96529.44;10535177;28;20750;-30
2023/08/04 17:42:30;;;;;;;2.90;0.75;;;;;;;20.91;62.61;96540.50;10524221;28;20035;-29
2023/08/04 17:47:32;;;;;;;0.90;0.70;;;;;;;20.92;62.08;96552.34;10520219;28;20036;-29
2023/08/04 17:52:32;;;;;;;1.17;0.50;;;;;;;20.93;61.48;96556.56;10535858;28;20047;-29
2023/08/04 17:57:33;;;;;;;2.05;0.60;;;;;;;20.94;61.90;96558.25;10521412;28;20032;-29
2023/08/04 18:02:33;;;;;;;0.93;0.60;;;;;;;20.94;61.74;96558.25;10541794;28;20032;-29
2023/08/04 18:07:35;;;;;;;2.93;0.60;;;;;;;20.94;61.88;96557.41;10531326;28;20054;-29
2023/08/04 18:12:36;;;;;;;0.63;0.60;;;;;;;20.93;61.46;96561.66;10524586;28;20506;-29
2023/08/04 18:17:38;;;;;;;3.60;0.80;;;;;;;20.93;62.09;96579.47;10514061;28;20084;-29
2023/08/04 18:22:45;;;;;;;1.80;0.70;;;;;;;20.92;62.48;96589.66;10543763;28;20044;-29
2023/08/04 18:27:45;;;;;;;0.50;0.50;;;;;;;20.93;61.82;96602.38;10527315;28;20131;-29
2023/08/04 18:32:46;;;;;;;1.30;0.80;;;;;;;20.93;61.45;96607.47;10534256;28;20034;-29
2023/08/04 18:37:47;;;;;;;0.73;0.60;;;;;;;20.93;61.50;96604.94;10533862;28;20051;-29
2023/08/04 18:42:48;;;;;;;6.93;1.08;;;;;;;20.90;62.03;96617.66;10537358;28;20024;-29
2023/08/04 18:47:48;;;;;;;1.67;0.85;;;;;;;20.95;61.80;96625.25;10549183;28;20036;-30
2023/08/04 18:52:48;;;;;;;2.70;0.70;;;;;;;20.93;61.93;96627.84;10527634;28;20035;-29
2023/08/04 18:57:49;;;;;;;1.00;0.60;;;;;;;20.93;61.85;96622.75;10538015;28;20017;-29
2023/08/04 19:02:49;;;;;;;1.05;0.60;;;;;;;20.92;61.68;96615.97;10519729;28;20039;-30
2023/08/04 19:07:50;;;;;;;2.33;0.80;;;;;;;20.90;62.07;96621.94;10535476;28;20093;-28
2023/08/04 19:12:50;;;;;;;0.90;0.60;;;;;;;20.93;61.63;96632.06;10545277;28;20039;-29
2023/08/04 19:17:50;;;;;;;1.73;0.70;;;;;;;20.90;61.70;96638.03;10548672;28;20024;-29
2023/08/04 19:22:51;;;;;;;1.23;0.70;;;;;;;20.86;61.65;96630.44;10544040;28;20370;-29
2023/08/04 19:27:51;;;;;;;1.67;0.93;;;;;;;20.90;61.26;96640.56;10547123;28;20474;-29
2023/08/04 19:32:51;;;;;;;7.67;1.33;;;;;;;20.92;61.80;96636.34;10530184;28;20670;-29
2023/08/04 19:37:52;;;;;;;4.40;1.50;;;;;;;20.93;62.75;96643.09;10517710;28;20510;-31
2023/08/04 19:42:52;;;;;;;2.83;0.80;;;;;;;20.92;61.72;96648.19;10525968;28;20024;-29
2023/08/04 19:47:52;;;;;;;2.40;0.60;;;;;;;20.90;61.49;96648.22;10529788;28;20296;-30
2023/08/04 19:52:53;;;;;;;1.77;0.70;;;;;;;20.89;61.41;96651.63;10524458;28;20044;-29
2023/08/04 19:57:53;;;;;;;0.63;0.53;;;;;;;20.88;61.33;96638.94;10528107;28;20031;-29
2023/08/04 20:02:53;;;;;;;3.80;0.83;;;;;;;20.88;61.38;96629.56;10531760;28;20035;-29
2023/08/04 20:07:54;;;;;;;2.90;0.60;;;;;;;20.88;61.25;96628.75;10528036;28;20032;-29
2023/08/04 20:12:54;;;;;;;2.73;1.20;;;;;;;20.89;62.07;96635.53;10544552;28;20027;-29
2023/08/04 20:17:58;;;;;;;3.28;1.00;;;;;;;20.88;62.16;96644.84;10545390;28;20039;-30
2023/08/04 20:22:58;;;;;;;2.38;1.20;;;;;;;20.93;61.97;96647.34;10524818;28;20054;-29
2023/08/04 20:27:59;;;;;;;1.30;0.68;;;;;;;20.90;61.12;96650.75;10515362;28;20047;-29
2023/08/04 20:32:59;;;;;;;2.03;0.60;;;;;;;20.90;60.87;96672.84;10546354;28;20036;-28
2023/08/04 20:38:00;;;;;;;1.30;0.70;;;;;;;20.89;61.15;96686.41;10529994;28;20059;-29
2023/08/04 20:43:00;;;;;;;0.88;0.63;;;;;;;20.82;60.91;96690.66;10540972;28;20024;-29
2023/08/04 20:48:00;;;;;;;1.00;0.60;;;;;;;20.86;61.20;96706.78;10523514;28;20288;-29
2023/08/04 20:53:01;;;;;;;3.30;1.17;;;;;;;20.79;61.07;96690.72;10535869;28;20028;-29
2023/08/04 20:58:01;;;;;;;0.90;0.80;;;;;;;20.86;61.92;96697.47;10531978;28;20028;-29
2023/08/04 21:03:01;;;;;;;1.37;0.90;;;;;;;20.90;61.84;96709.28;10543520;28;20039;-29
2023/08/04 21:08:02;;;;;;;2.20;1.25;;;;;;;20.91;61.48;96705.91;10550069;28;20093;-29
2023/08/04 21:13:05;;;;;;;0.47;0.47;;;;;;;20.89;60.97;96707.59;10521813;28;20119;-29
2023/08/04 21:18:05;;;;;;;0.95;0.70;;;;;;;20.88;60.91;96716.09;10538535;28;20028;-29
2023/08/04 21:23:06;;;;;;;1.37;0.70;;;;;;;20.86;60.87;96738.19;10539553;28;20039;-29
2023/08/04 21:28:06;;;;;;;0.80;0.70;;;;;;;20.87;60.53;96747.50;10543617;28;20036;-29
2023/08/04 21:33:06;;;;;;;2.63;0.73;;;;;;;20.87;60.80;96749.22;10535493;28;20038;-29
2023/08/04 21:38:07;;;;;;;0.60;0.60;;;;;;;20.86;60.67;96752.59;10551788;28;20043;-28
2023/08/04 21:43:07;;;;;;;1.80;0.90;;;;;;;20.88;62.02;96746.66;10553143;28;20044;-29
2023/08/04 21:48:08;;;;;;;1.03;0.80;;;;;;;20.91;61.57;96746.63;10546531;28;20032;-29
2023/08/04 21:53:08;;;;;;;2.97;0.80;;;;;;;20.89;61.33;96757.69;10534293;28;20296;-29
2023/08/04 21:58:08;;;;;;;1.93;0.70;;;;;;;20.88;60.84;96766.19;10552410;28;20306;-29
2023/08/04 22:03:09;;;;;;;1.83;0.87;;;;;;;20.86;61.90;96753.47;10542936;28;20028;-29
2023/08/04 22:08:09;;;;;;;1.50;0.50;;;;;;;20.86;60.76;96743.28;10545422;28;20043;-29
2023/08/04 22:13:09;;;;;;;1.17;0.60;;;;;;;20.86;60.65;96730.56;10548976;28;20119;-29
2023/08/04 22:18:10;;;;;;;1.37;0.60;;;;;;;20.85;60.69;96720.34;10546601;28;20028;-30
2023/08/04 22:23:10;;;;;;;2.08;1.10;;;;;;;20.87;61.97;96719.50;10542717;28;20401;-29
2023/08/04 22:28:11;;;;;;;1.43;0.97;;;;;;;20.89;64.07;96722.88;10525869;28;20076;-29
2023/08/04 22:33:11;;;;;;;1.83;1.00;;;;;;;20.87;63.32;96709.34;10538250;28;20330;-29
2023/08/04 22:38:11;;;;;;;1.10;0.93;;;;;;;20.86;61.54;96707.66;10526000;28;20028;-29
2023/08/04 22:43:12;;;;;;;0.77;0.60;;;;;;;20.86;61.01;96702.56;10528213;28;20430;-29
2023/08/04 22:48:13;;;;;;;0.70;0.70;;;;;;;20.86;60.73;96700.00;10532359;28;20032;-29
2023/08/04 22:53:13;;;;;;;2.38;0.90;;;;;;;20.84;60.97;96698.31;10540644;28;20405;-29
2023/08/04 22:58:13;;;;;;;1.20;0.50;;;;;;;20.83;60.89;96692.38;10538588;28;20039;-29
2023/08/04 23:03:14;;;;;;;1.57;0.50;;;;;;;20.82;61.01;96685.59;10534508;28;20092;-29
2023/08/04 23:08:14;;;;;;;2.33;1.00;;;;;;;20.87;62.89;96677.97;10530563;28;20040;-29
2023/08/04 23:13:14;;;;;;;1.10;0.70;;;;;;;20.86;63.63;96666.94;10528466;28;20040;-28
2023/08/04 23:18:15;;;;;;;1.00;0.77;;;;;;;20.87;62.11;96673.69;10524828;28;20035;-30